Time;durP1;ratioP1;P1;durP2;ratioP2;P2;SDS_P1;SDS_P2;PMS_P1;PMS_P2;Temp;Humidity;BMP_temperature;BMP_pressure;BME280_temperature;BME280_humidity;BME280_pressure;Samples;Min_cycle;Max_cycle;Signal;HPM_P1;HPM_P2
2021/08/05 00:01:25;;;;;;;;;62.25;49.50;;;;;24.58;71.29;101339.44;4955069;28;8873;-79
2021/08/05 00:04:20;;;;;;;;;60.25;49.75;;;;;24.66;71.58;101333.31;4935496;29;8884;-79
2021/08/05 00:07:16;;;;;;;;;58.75;47.50;;;;;25.01;69.84;101328.69;4936542;29;8871;-80
2021/08/05 00:09:45;;;;;;;;;60.75;48.50;;;;;24.91;69.98;101321.84;4919703;29;8863;-80
2021/08/05 00:12:30;;;;;;;;;52.00;41.00;;;;;24.53;69.78;101328.53;4936437;29;9626;-80
2021/08/05 00:15:26;;;;;;;;;65.00;52.00;;;;;24.76;69.96;101331.63;4935127;29;9128;-80
2021/08/05 00:18:22;;;;;;;;;75.00;60.33;;;;;24.75;69.79;101334.88;4935339;29;8987;-80
2021/08/05 00:21:19;;;;;;;;;77.67;66.33;;;;;24.85;68.80;101336.88;4922818;29;9099;-80
2021/08/05 00:24:15;;;;;;;;;68.50;54.25;;;;;24.92;70.04;101337.63;4934988;29;9437;-79
2021/08/05 00:27:11;;;;;;;;;78.00;68.67;;;;;25.01;69.02;101320.19;4923638;29;8898;-80
2021/08/05 00:30:06;;;;;;;;;66.75;55.00;;;;;25.19;68.62;101320.06;4935654;29;9106;-80
2021/08/05 00:33:02;;;;;;;;;76.33;63.33;;;;;25.06;69.28;101316.13;4922556;29;8844;-81
2021/08/05 00:35:58;;;;;;;;;77.00;67.33;;;;;24.81;69.31;101313.44;4935083;29;9111;-80
2021/08/05 00:38:53;;;;;;;;;119.75;96.75;;;;;24.40;69.71;101302.78;4922344;29;9122;-80
2021/08/05 00:41:49;;;;;;;;;114.75;100.75;;;;;24.12;69.13;101310.09;4922963;29;10944;-80
2021/08/05 00:44:16;;;;;;;;;89.25;78.25;;;;;24.28;71.19;101306.81;4936238;29;11665;-80
2021/08/05 00:47:05;;;;;;;;;116.25;103.75;;;;;24.67;69.82;101309.47;4922080;29;10880;-80
2021/08/05 00:50:00;;;;;;;;;105.50;86.00;;;;;24.92;69.28;101305.66;4935681;29;11834;-80
2021/08/05 00:52:56;;;;;;;;;116.50;100.00;;;;;24.67;69.22;101303.81;4934815;29;11097;-79
2021/08/05 00:55:51;;;;;;;;;107.75;93.75;;;;;24.74;68.52;101300.16;4936814;29;11280;-80
2021/08/05 00:58:47;;;;;;;;;107.50;94.25;;;;;24.83;69.33;101296.84;4934962;29;11009;-78
2021/08/05 01:01:56;;;;;;;;;103.25;91.75;;;;;24.95;68.64;101300.00;4935990;28;11219;-79
2021/08/05 01:04:54;;;;;;;;;94.75;84.75;;;;;25.00;67.38;101310.09;4960522;28;11201;-79
2021/08/05 01:07:59;;;;;;;;;116.75;100.00;;;;;24.76;68.65;101311.03;4974072;28;10460;-79
2021/08/05 01:10:36;;;;;;;;;97.50;86.50;;;;;24.43;69.71;101307.59;4974901;28;11095;-79
2021/08/05 01:13:49;;;;;;;;;106.25;83.75;;;;;24.22;69.66;101310.47;4973228;28;10943;-80
2021/08/05 01:16:47;;;;;;;;;112.00;97.50;;;;;24.60;70.01;101312.34;4961490;28;11729;-79
2021/08/05 01:19:50;;;;;;;;;96.75;77.75;;;;;24.84;69.32;101319.06;4973602;28;10953;-80
2021/08/05 01:22:53;;;;;;;;;100.25;85.25;;;;;24.79;68.67;101319.50;4960206;28;10959;-80
2021/08/05 01:26:14;;;;;;;;;107.00;86.75;;;;;24.89;68.86;101315.81;4973791;28;10784;-79
2021/08/05 01:28:44;;;;;;;;;109.75;91.75;;;;;24.78;68.53;101315.09;4949101;28;10794;-80
2021/08/05 01:31:27;;;;;;;;;91.50;83.25;;;;;24.33;68.68;101314.09;4977558;28;10851;-79
2021/08/05 01:33:56;;;;;;;;;89.75;73.75;;;;;24.17;68.45;101311.72;4977236;28;10347;-79
2021/08/05 01:36:27;;;;;;;;;47.75;36.00;;;;;23.71;69.49;101314.66;4960129;28;10188;-79
2021/08/05 01:39:23;;;;;;;;;67.33;52.33;;;;;24.05;70.29;101310.13;4975602;28;9611;-79
2021/08/05 01:42:21;;;;;;;;;104.00;89.00;;;;;24.15;70.67;101311.31;4976498;28;9413;-80
2021/08/05 01:45:17;;;;;;;;;82.00;75.25;;;;;23.84;69.58;101304.53;4964096;28;10296;-80
2021/08/05 01:48:15;;;;;;;;;86.75;71.00;;;;;24.05;70.17;101314.97;4976621;28;10017;-80
2021/08/05 01:50:46;;;;;;;;;77.25;66.00;;;;;24.33;70.50;101314.09;4959947;28;9948;-79
2021/08/05 01:53:42;;;;;;;;;78.67;68.33;;;;;24.39;69.31;101310.44;4976624;28;10692;-80
2021/08/05 01:56:37;;;;;;;;;74.67;63.67;;;;;24.00;69.26;101299.28;4974974;28;9479;-79
2021/08/05 01:59:06;;;;;;;;;73.67;59.00;;;;;23.54;69.65;101304.97;4976907;28;9205;-78
2021/08/05 02:02:02;;;;;;;;;77.25;70.75;;;;;23.48;72.73;101303.78;4973925;28;10336;-79
2021/08/05 02:05:05;;;;;;;;;79.25;74.25;;;;;23.77;71.51;101307.38;4943481;28;10738;-79
2021/08/05 02:08:05;;;;;;;;;76.75;68.25;;;;;23.80;69.58;101309.41;4956531;28;9998;-79
2021/08/05 02:10:36;;;;;;;;;89.75;76.25;;;;;23.02;71.70;101313.84;4957125;28;10034;-80
2021/08/05 02:13:40;;;;;;;;;79.00;67.50;;;;;22.93;73.78;101312.63;4957035;28;10081;-80
2021/08/05 02:16:38;;;;;;;;;77.25;68.25;;;;;23.73;72.12;101309.41;4956042;28;9947;-80
2021/08/05 02:19:34;;;;;;;;;54.25;43.75;;;;;24.04;70.71;101311.34;4957147;28;9615;-80
2021/08/05 02:22:30;;;;;;;;;80.75;70.00;;;;;24.16;69.74;101309.31;4957958;28;9888;-81
2021/08/05 02:25:26;;;;;;;;;79.25;71.50;;;;;24.26;69.13;101303.59;4957042;28;9685;-79
2021/08/05 02:28:23;;;;;;;;;79.25;71.25;;;;;24.21;68.95;101300.38;4956810;28;10268;-79
2021/08/05 02:31:20;;;;;;;;;85.25;78.00;;;;;23.90;69.83;101294.44;4956745;28;10108;-80
2021/08/05 02:34:18;;;;;;;;;78.50;73.50;;;;;23.83;70.10;101292.44;4958611;28;10203;-81
2021/08/05 02:37:14;;;;;;;;;77.75;70.50;;;;;23.63;71.47;101293.31;4943467;28;10188;-80
2021/08/05 02:40:11;;;;;;;;;83.00;77.25;;;;;23.44;71.82;101286.03;4957235;28;10341;-80
2021/08/05 02:43:09;;;;;;;;;80.25;71.75;;;;;23.37;70.57;101286.84;4956005;28;10600;-80
2021/08/05 02:46:05;;;;;;;;;79.50;68.25;;;;;23.35;70.03;101294.09;4956037;28;10298;-78
2021/08/05 02:49:03;;;;;;;;;79.25;69.50;;;;;23.01;69.86;101294.50;4942732;28;10041;-80
2021/08/05 02:51:59;;;;;;;;;87.75;69.75;;;;;22.90;70.68;101294.47;4955393;28;9764;-81
2021/08/05 02:54:56;;;;;;;;;77.00;67.25;;;;;22.95;70.12;101282.81;4955156;28;10018;-80
2021/08/05 02:57:52;;;;;;;;;77.50;68.75;;;;;22.93;69.84;101288.06;4955756;28;10533;-80
2021/08/05 03:00:48;;;;;;;;;93.50;78.50;;;;;22.71;69.98;101283.56;4943053;28;10371;-81
2021/08/05 03:03:44;;;;;;;;;90.00;77.00;;;;;22.73;69.89;101289.59;4972373;28;10693;-80
2021/08/05 03:06:41;;;;;;;;;88.25;80.50;;;;;22.73;69.82;101289.59;4974527;28;10302;-82
2021/08/05 03:09:36;;;;;;;;;74.75;62.25;;;;;22.69;67.45;101294.41;4974661;28;10095;-80
2021/08/05 03:12:04;;;;;;;;;64.00;52.00;;;;;22.73;67.99;101287.59;4975773;28;9705;-79
2021/08/05 03:15:00;;;;;;;;;57.00;47.00;;;;;22.74;65.65;101286.38;4949863;28;8962;-81
2021/08/05 03:17:56;;;;;;;;;55.50;45.00;;;;;22.76;64.84;101289.59;4962990;28;8869;-81
2021/08/05 03:20:52;;;;;;;;;71.33;54.33;;;;;22.93;67.74;101285.25;4963410;28;8901;-81
2021/08/05 03:23:47;;;;;;;;;56.50;46.25;;;;;23.01;65.82;101292.50;4977051;28;9022;-81
2021/08/05 03:26:43;;;;;;;;;62.75;49.00;;;;;23.00;66.12;101299.34;4974136;28;8889;-81
2021/08/05 03:29:39;;;;;;;;;63.00;52.00;;;;;23.02;64.49;101298.94;4974660;28;8921;-81
2021/08/05 03:32:35;;;;;;;;;67.67;52.33;;;;;23.23;66.11;101298.13;4975538;28;9038;-80
2021/08/05 03:35:30;;;;;;;;;72.25;60.25;;;;;22.92;65.86;101292.06;4975008;28;9004;-80
2021/08/05 03:38:27;;;;;;;;;79.25;74.25;;;;;22.94;64.81;101292.47;4974713;28;9908;-81
2021/08/05 03:40:56;;;;;;;;;82.50;76.00;;;;;23.07;63.92;101287.25;4955802;28;10500;-80
2021/08/05 03:43:51;;;;;;;;;78.25;68.00;;;;;23.01;63.92;101292.50;4942268;28;11265;-80
2021/08/05 03:46:48;;;;;;;;;72.00;62.00;;;;;23.13;64.28;101287.66;4955313;28;10260;-80
2021/08/05 03:49:44;;;;;;;;;74.50;65.00;;;;;23.34;64.43;101295.31;4941048;28;10482;-80
2021/08/05 03:52:14;;;;;;;;;68.67;56.67;;;;;23.02;65.98;101291.28;4954881;28;10938;-80
2021/08/05 03:55:16;;;;;;;;;46.00;34.50;;;;;22.52;68.17;101292.34;4956926;28;9342;-80
2021/08/05 03:57:46;;;;;;;;;63.75;52.25;;;;;22.36;69.67;101292.72;4956917;28;8855;-81
2021/08/05 04:00:17;;;;;;;;;64.67;51.33;;;;;22.29;70.38;101295.50;4955445;28;8883;-80
2021/08/05 04:02:45;;;;;;;;;69.00;56.33;;;;;22.40;69.17;101297.16;4955572;28;9131;-80
2021/08/05 04:05:15;;;;;;;;;67.33;52.33;;;;;22.75;69.30;101296.44;4939831;28;9265;-80
2021/08/05 04:08:10;;;;;;;;;82.50;70.75;;;;;23.23;66.59;101298.13;4931988;28;9401;-80
2021/08/05 04:10:53;;;;;;;;;65.33;53.00;;;;;23.45;67.59;101291.25;4939700;28;10111;-81
2021/08/05 04:13:41;;;;;;;;;79.00;69.50;;;;;23.44;66.46;101300.94;4953859;28;9048;-81
2021/08/05 04:16:09;;;;;;;;;81.50;72.25;;;;;23.54;65.35;101304.97;4941048;28;10217;-80
2021/08/05 04:19:10;;;;;;;;;71.33;59.67;;;;;23.64;66.98;101297.75;4936605;29;10939;-81
2021/08/05 04:21:53;;;;;;;;;76.00;67.00;;;;;23.79;66.73;101296.50;4936831;29;9513;-80
2021/08/05 04:24:52;;;;;;;;;77.00;69.25;;;;;23.91;66.27;101296.03;4935083;29;9723;-81
2021/08/05 04:27:21;;;;;;;;;77.75;68.25;;;;;23.96;65.54;101304.13;4935867;29;10002;-81
2021/08/05 04:29:51;;;;;;;;;70.33;55.67;;;;;23.95;65.69;101305.31;4930978;29;9583;-80
2021/08/05 04:32:48;;;;;;;;;63.75;49.50;;;;;23.84;65.66;101302.50;4942693;29;9023;-82
2021/08/05 04:35:43;;;;;;;;;77.00;65.67;;;;;23.99;65.79;101300.47;4954226;29;8862;-80
2021/08/05 04:38:12;;;;;;;;;64.00;50.33;;;;;24.07;65.75;101304.88;4956438;29;9377;-80
2021/08/05 04:40:54;;;;;;;;;59.75;47.25;;;;;24.05;64.62;101293.19;4955429;29;9040;-80
2021/08/05 04:43:23;;;;;;;;;33.25;31.75;;;;;24.12;63.25;101298.00;4957208;29;8860;-80
2021/08/05 04:45:52;;;;;;;;;41.50;36.50;;;;;24.08;64.15;101294.41;4956380;29;8864;-80
2021/08/05 04:48:20;;;;;;;;;49.50;42.50;;;;;24.33;64.77;101297.16;4959424;29;8853;-79
2021/08/05 04:50:49;;;;;;;;;59.50;47.00;;;;;24.50;64.42;101301.09;4956109;29;8853;-80
2021/08/05 04:53:17;;;;;;;;;49.25;42.00;;;;;24.71;63.75;101294.53;4955241;29;8863;-79
2021/08/05 04:55:48;;;;;;;;;44.75;38.25;;;;;24.74;62.45;101293.69;4960102;28;8858;-79
2021/08/05 04:58:17;;;;;;;;;27.50;27.50;;;;;24.65;60.54;101292.13;4951973;29;8956;-77
2021/08/05 05:00:58;;;;;;;;;28.00;28.00;;;;;24.54;61.46;101287.75;4931565;28;8925;-79
2021/08/05 05:03:30;;;;;;;;;31.25;29.75;;;;;24.50;62.07;101290.59;4958365;28;8875;-78
2021/08/05 05:06:03;;;;;;;;;29.80;29.40;;;;;24.65;61.66;101280.81;4947312;28;8983;-78
2021/08/05 05:08:31;;;;;;;;;20.40;20.40;;;;;24.72;62.27;101284.81;4956965;28;8895;-79
2021/08/05 05:11:16;;;;;;;;;27.40;26.20;;;;;24.85;60.70;101281.09;4952438;28;8902;-80
2021/08/05 05:13:58;;;;;;;;;26.80;26.80;;;;;24.90;61.95;101282.66;4956081;28;8859;-79
2021/08/05 05:16:25;;;;;;;;;24.00;24.00;;;;;24.93;60.67;101285.47;4955155;28;8875;-79
2021/08/05 05:18:54;;;;;;;;;26.00;25.80;;;;;24.96;60.22;101290.28;4958248;28;8959;-80
2021/08/05 05:21:22;;;;;;;;;25.20;25.20;;;;;25.01;60.90;101291.88;4940975;28;8937;-80
2021/08/05 05:24:18;;;;;;;;;25.60;25.20;;;;;25.13;60.97;101288.56;4956940;28;8920;-79
2021/08/05 05:27:13;;;;;;;;;29.60;27.00;;;;;25.23;60.58;101287.69;4942047;28;8961;-78
2021/08/05 05:29:41;;;;;;;;;26.40;26.40;;;;;25.35;60.19;101285.56;4951166;28;8883;-79
2021/08/05 05:32:39;;;;;;;;;29.20;28.40;;;;;25.57;59.49;101277.69;4958044;28;8856;-80
2021/08/05 05:35:08;;;;;;;;;24.00;24.00;;;;;25.73;59.35;101280.78;4954824;28;8867;-80
2021/08/05 05:37:38;;;;;;;;;25.60;25.60;;;;;25.87;59.54;101279.81;4956357;28;8865;-79
2021/08/05 05:40:38;;;;;;;;;26.00;25.60;;;;;26.03;59.24;101278.00;4950336;28;8906;-80
2021/08/05 05:43:19;;;;;;;;;23.60;23.60;;;;;26.15;58.03;101273.81;4957400;28;8910;-80
2021/08/05 05:46:07;;;;;;;;;28.20;28.20;;;;;26.17;58.43;101279.84;4958110;28;8866;-78
2021/08/05 05:48:35;;;;;;;;;28.20;28.20;;;;;26.32;57.49;101271.97;4957568;28;8894;-79
2021/08/05 05:51:16;;;;;;;;;28.60;28.60;;;;;26.35;58.67;101268.28;4956541;28;8884;-78
2021/08/05 05:53:47;;;;;;;;;35.00;30.40;;;;;26.50;56.82;101271.75;4959397;28;8855;-79
2021/08/05 05:56:33;;;;;;;;;27.60;27.00;;;;;26.54;56.45;101273.31;4956293;28;8978;-79
2021/08/05 05:59:28;;;;;;;;;23.40;23.40;;;;;26.59;56.42;101269.19;4955037;28;8858;-78
2021/08/05 06:02:24;;;;;;;;;26.20;23.00;;;;;26.72;55.91;101260.88;4954241;28;8840;-79
2021/08/05 06:05:07;;;;;;;;;26.00;26.00;;;;;26.85;55.13;101264.75;4951972;28;8876;-77
2021/08/05 06:07:53;;;;;;;;;21.60;21.60;;;;;26.99;55.61;101263.69;4952429;28;8936;-79
2021/08/05 06:10:50;;;;;;;;;20.80;20.80;;;;;27.26;55.59;101260.84;4924518;29;8860;-79
2021/08/05 06:13:18;;;;;;;;;23.80;23.80;;;;;27.48;55.12;101259.22;4938765;29;8894;-79
2021/08/05 06:15:46;;;;;;;;;28.80;27.20;;;;;27.47;54.34;101254.00;4938554;29;8875;-79
2021/08/05 06:18:14;;;;;;;;;24.00;24.00;;;;;27.50;54.52;101256.75;4938741;29;8886;-78
2021/08/05 06:20:48;;;;;;;;;25.60;24.00;;;;;27.58;54.58;101252.53;4922542;29;8868;-79
2021/08/05 06:23:17;;;;;;;;;21.80;21.80;;;;;27.66;52.07;101247.53;4938485;29;8894;-79
2021/08/05 06:25:44;;;;;;;;;15.60;15.60;;;;;27.89;52.11;101246.69;4937781;29;9613;-79
2021/08/05 06:28:12;;;;;;;;;26.80;26.40;;;;;27.94;52.77;101249.84;4938506;29;8879;-79
2021/08/05 06:30:39;;;;;;;;;20.40;20.40;;;;;28.10;51.06;101245.47;4921418;29;8863;-80
2021/08/05 06:33:07;;;;;;;;;18.80;18.80;;;;;28.26;51.23;101254.03;4937839;29;8894;-79
2021/08/05 06:35:35;;;;;;;;;18.60;18.60;;;;;28.48;50.56;101255.19;4937923;29;8993;-79
2021/08/05 06:38:04;;;;;;;;;17.20;17.20;;;;;28.61;49.43;101252.47;4936890;29;8871;-80
2021/08/05 06:40:34;;;;;;;;;15.60;15.60;;;;;28.79;47.87;101254.88;4936839;29;8919;-79
2021/08/05 06:43:02;;;;;;;;;20.40;20.40;;;;;28.82;49.18;101254.00;4938195;29;8888;-78
2021/08/05 06:45:29;;;;;;;;;17.00;17.00;;;;;29.06;48.57;101254.66;4921041;29;8867;-78
2021/08/05 06:47:58;;;;;;;;;15.60;15.60;;;;;29.16;46.23;101253.59;4938775;29;8918;-79
2021/08/05 06:50:25;;;;;;;;;29.60;25.20;;;;;29.21;45.58;101261.56;4938668;29;8848;-80
2021/08/05 06:52:55;;;;;;;;;13.80;13.60;;;;;29.40;45.26;101251.34;4942601;29;9610;-80
2021/08/05 06:55:57;;;;;;;;;13.00;13.00;;;;;29.57;44.63;101243.56;4918211;29;8883;-80
2021/08/05 06:58:29;;;;;;;;;13.80;13.80;;;;;29.68;44.75;101252.66;4940478;29;8875;-81
2021/08/05 07:01:00;;;;;;;;;12.60;12.60;;;;;29.85;44.22;101250.53;4937932;29;8863;-81
2021/08/05 07:03:28;;;;;;;;;12.80;12.80;;;;;29.98;43.52;101248.53;4937870;29;8938;-79
2021/08/05 07:05:56;;;;;;;;;14.00;14.00;;;;;29.96;43.42;101248.16;4937709;29;8859;-78
2021/08/05 07:08:24;;;;;;;;;13.20;13.20;;;;;30.01;42.51;101255.38;4937568;29;8899;-80
2021/08/05 07:10:52;;;;;;;;;15.00;15.00;;;;;30.06;45.03;101246.25;4920459;29;9629;-78
2021/08/05 07:13:20;;;;;;;;;10.20;10.20;;;;;30.27;42.29;101245.63;4937331;29;9629;-79
2021/08/05 07:15:48;;;;;;;;;16.40;16.40;;;;;30.39;42.15;101246.91;4936946;29;8859;-78
2021/08/05 07:18:16;;;;;;;;;31.80;30.20;;;;;30.60;42.62;101245.47;4937533;29;8867;-80
2021/08/05 07:20:46;;;;;;;;;19.00;19.00;;;;;30.83;41.42;101245.13;4937436;29;9708;-79
2021/08/05 07:23:14;;;;;;;;;9.00;9.00;;;;;30.89;41.53;101240.41;4936201;29;8876;-80
2021/08/05 07:25:43;;;;;;;;;8.80;8.80;;;;;30.93;40.10;101240.31;4937595;29;8864;-79
2021/08/05 07:28:14;;;;;;;;;11.20;11.20;;;;;31.13;41.13;101240.88;4937376;29;8891;-80
2021/08/05 07:30:43;;;;;;;;;11.40;11.40;;;;;31.19;39.33;101244.72;4937179;29;8894;-79
2021/08/05 07:33:11;;;;;;;;;8.80;8.80;;;;;31.32;36.29;101241.06;4953612;28;9615;-80
2021/08/05 07:36:07;;;;;;;;;6.80;6.80;;;;;31.51;38.38;101237.09;4954892;28;8951;-80
2021/08/05 07:38:34;;;;;;;;;6.20;6.20;;;;;31.70;36.92;101238.84;4957019;28;8885;-79
2021/08/05 07:41:02;;;;;;;;;6.00;6.00;;;;;31.73;36.71;101249.34;4956414;28;8947;-80
2021/08/05 07:43:29;;;;;;;;;7.00;7.00;;;;;31.92;36.26;101236.03;4941172;28;8885;-79
2021/08/05 07:46:20;;;;;;;;;6.00;6.00;;;;;32.03;36.24;101241.34;4955720;28;8927;-80
2021/08/05 07:48:48;;;;;;;;;6.20;6.20;;;;;32.30;36.12;101229.25;4962042;28;8869;-78
2021/08/05 07:51:44;;;;;;;;;10.40;10.40;;;;;31.77;35.54;101244.34;4966523;28;8872;-79
2021/08/05 07:54:12;;;;;;;;;7.40;7.40;;;;;31.52;37.14;101238.72;4964943;28;8885;-80
2021/08/05 07:56:42;;;;;;;;;6.60;6.60;;;;;31.15;37.70;101229.75;4940526;28;8864;-79
2021/08/05 07:59:10;;;;;;;;;14.00;14.00;;;;;31.24;38.99;101229.88;4956781;28;8865;-81
2021/08/05 08:02:05;;;;;;;;;7.20;7.20;;;;;31.43;38.06;101227.97;4942431;28;8887;-80
2021/08/05 08:04:36;;;;;;;;;8.00;8.00;;;;;31.58;36.44;101230.31;4955584;28;8853;-79
2021/08/05 08:07:04;;;;;;;;;6.20;6.20;;;;;31.76;36.34;101224.75;4955363;28;8983;-81
2021/08/05 08:09:33;;;;;;;;;7.80;7.80;;;;;31.88;36.94;101226.78;4954750;28;8857;-81
2021/08/05 08:12:01;;;;;;;;;7.20;7.20;;;;;31.27;37.00;101216.72;4938438;28;8885;-81
2021/08/05 08:14:30;;;;;;;;;6.20;5.80;;;;;31.39;36.18;101220.81;4957481;28;8873;-78
2021/08/05 08:17:18;;;;;;;;;7.00;7.00;;;;;31.78;36.91;101217.34;4945953;28;8861;-78
2021/08/05 08:19:48;;;;;;;;;8.80;8.80;;;;;31.94;36.32;101218.41;4956036;29;8943;-79
2021/08/05 08:22:15;;;;;;;;;7.40;7.40;;;;;31.95;35.36;101214.28;4937905;29;8872;-79
2021/08/05 08:24:46;;;;;;;;;7.80;7.80;;;;;31.88;36.61;101206.75;4955141;29;8853;-79
2021/08/05 08:27:14;;;;;;;;;7.00;7.00;;;;;31.80;35.26;101209.09;4955345;29;8877;-81
2021/08/05 08:29:42;;;;;;;;;9.20;9.20;;;;;31.67;36.06;101210.38;4955841;29;8856;-81
2021/08/05 08:32:38;;;;;;;;;9.00;9.00;;;;;31.68;36.56;101209.94;4946368;29;8895;-79
2021/08/05 08:35:20;;;;;;;;;8.20;8.20;;;;;31.79;37.76;101203.84;4957188;28;9646;-79
2021/08/05 08:37:48;;;;;;;;;9.00;9.00;;;;;31.89;35.93;101208.34;4959276;28;8943;-78
2021/08/05 08:40:44;;;;;;;;;6.00;6.00;;;;;31.68;35.79;101207.09;4957832;28;8860;-79
2021/08/05 08:43:41;;;;;;;;;10.00;10.00;;;;;31.87;36.89;101205.16;4966024;28;8848;-81
2021/08/05 08:46:21;;;;;;;;;7.80;7.80;;;;;32.01;36.38;101204.63;4959262;28;8887;-79
2021/08/05 08:48:57;;;;;;;;;9.60;9.60;;;;;32.01;36.52;101189.53;4942688;28;9059;-80
2021/08/05 08:51:26;;;;;;;;;7.20;7.20;;;;;32.46;36.04;101196.78;4958367;28;8880;-79
2021/08/05 08:53:55;;;;;;;;;9.00;9.00;;;;;32.58;34.19;101187.25;4960588;28;8853;-79
2021/08/05 08:56:25;;;;;;;;;7.80;7.80;;;;;32.14;33.19;101195.16;4960036;28;8903;-79
2021/08/05 08:59:22;;;;;;;;;7.80;7.80;;;;;32.21;34.64;101189.97;4939791;29;8922;-80
2021/08/05 09:01:50;;;;;;;;;5.80;5.80;;;;;32.27;33.23;101185.19;4939185;29;9609;-78
2021/08/05 09:04:19;;;;;;;;;7.00;7.00;;;;;32.35;33.82;101189.41;4942341;29;8851;-80
2021/08/05 09:07:07;;;;;;;;;7.80;7.20;;;;;32.24;33.68;101185.34;4926646;29;8879;-80
2021/08/05 09:10:03;;;;;;;;;12.00;12.00;;;;;32.08;34.91;101180.66;4945089;28;8856;-79
2021/08/05 09:12:33;;;;;;;;;7.20;7.20;;;;;32.36;34.53;101185.28;4959077;28;8857;-80
2021/08/05 09:15:37;;;;;;;;;8.00;8.00;;;;;32.76;34.19;101173.00;4957307;28;8868;-79
2021/08/05 09:18:41;;;;;;;;;7.20;7.20;;;;;33.13;33.93;101167.38;4956930;28;8859;-80
2021/08/05 09:21:37;;;;;;;;;5.80;5.80;;;;;33.06;32.15;101162.75;4954513;28;8871;-80
2021/08/05 09:24:08;;;;;;;;;8.00;8.00;;;;;33.30;33.64;101165.78;4959015;28;8880;-81
2021/08/05 09:27:13;;;;;;;;;7.40;7.40;;;;;33.19;32.08;101160.50;4956413;28;8934;-81
2021/08/05 09:30:31;;;;;;;;;10.20;10.20;;;;;33.28;32.86;101153.19;4956052;28;9687;-80
2021/08/05 09:33:19;;;;;;;;;8.00;7.40;;;;;33.50;32.03;101158.78;4955786;28;8863;-80
2021/08/05 09:36:25;;;;;;;;;7.00;7.00;;;;;33.71;31.30;101146.31;4957440;28;8875;-80
2021/08/05 09:39:31;;;;;;;;;6.80;6.80;;;;;33.94;31.23;101159.19;4954718;28;8864;-81
2021/08/05 09:42:08;;;;;;;;;6.00;6.00;;;;;32.84;31.85;101142.78;4932978;28;8878;-80
2021/08/05 09:44:55;;;;;;;;;6.20;6.20;;;;;33.09;32.66;101138.84;4957207;28;8871;-82
2021/08/05 09:47:50;;;;;;;;;9.00;9.00;;;;;33.16;31.80;101137.75;4955200;28;8980;-79
2021/08/05 09:50:48;;;;;;;;;7.60;7.60;;;;;33.51;31.27;101140.28;4958877;28;8864;-79
2021/08/05 09:53:56;;;;;;;;;6.40;6.40;;;;;33.67;31.66;101137.09;4955690;28;8967;-80
2021/08/05 09:56:55;;;;;;;;;7.20;7.20;;;;;33.59;31.20;101144.44;4955741;28;8934;-80
2021/08/05 10:00:14;;;;;;;;;7.80;7.80;;;;;33.58;32.60;101131.38;4952359;28;8933;-80
2021/08/05 10:03:10;;;;;;;;;7.40;7.40;;;;;33.92;31.80;101128.13;4955229;28;8934;-80
2021/08/05 10:06:07;;;;;;;;;4.40;4.40;;;;;34.16;31.71;101133.94;4965612;28;8919;-78
2021/08/05 10:08:56;;;;;;;;;8.40;8.40;;;;;33.96;31.96;101131.63;4967219;28;8890;-78
2021/08/05 10:11:38;;;;;;;;;5.60;5.60;;;;;34.00;31.53;101128.59;4952441;28;8897;-78
2021/08/05 10:14:35;;;;;;;;;8.40;8.40;;;;;34.08;31.53;101129.84;4955823;28;8897;-77
2021/08/05 10:17:20;;;;;;;;;8.40;8.40;;;;;33.21;31.34;101117.06;4953831;28;8943;-79
2021/08/05 10:20:15;;;;;;;;;6.80;6.80;;;;;33.70;31.66;101108.25;4955521;28;8883;-80
2021/08/05 10:22:45;;;;;;;;;6.80;6.80;;;;;33.13;31.48;101108.00;4957358;28;8890;-80
2021/08/05 10:25:42;;;;;;;;;6.80;6.80;;;;;33.81;32.11;101104.06;4952787;28;8858;-79
2021/08/05 10:28:39;;;;;;;;;4.00;4.00;;;;;34.12;31.92;101106.69;4954484;28;8864;-79
2021/08/05 10:31:36;;;;;;;;;7.00;7.00;;;;;33.99;29.93;101101.19;4955053;28;9669;-78
2021/08/05 10:34:37;;;;;;;;;7.40;7.40;;;;;33.84;32.05;101100.25;4953121;28;8840;-81
2021/08/05 10:37:33;;;;;;;;;4.80;4.80;;;;;33.99;30.72;101096.22;4946318;28;8863;-77
2021/08/05 10:40:29;;;;;;;;;7.00;7.00;;;;;34.35;30.67;101100.19;4943560;28;8864;-81
2021/08/05 10:43:25;;;;;;;;;9.00;9.00;;;;;34.55;29.67;101097.56;4953295;28;8974;-79
2021/08/05 10:46:21;;;;;;;;;5.00;5.00;;;;;34.22;30.10;101086.09;4948972;28;8874;-80
2021/08/05 10:49:04;;;;;;;;;6.80;6.80;;;;;34.38;29.43;101079.13;4954565;28;8887;-78
2021/08/05 10:52:00;;;;;;;;;5.00;5.00;;;;;34.78;30.08;101080.81;4953241;28;8951;-82
2021/08/05 10:54:56;;;;;;;;;7.00;7.00;;;;;34.76;29.01;101084.16;4952598;28;8965;-80
2021/08/05 10:58:10;;;;;;;;;8.80;8.80;;;;;35.03;28.95;101073.75;4946121;28;8926;-79
2021/08/05 11:01:06;;;;;;;;;4.80;4.80;;;;;35.32;28.21;101075.88;4952261;28;8901;-79
2021/08/05 11:04:33;;;;;;;;;5.00;5.00;;;;;34.66;28.83;101073.22;4951107;28;8961;-78
2021/08/05 11:07:31;;;;;;;;;9.20;9.00;;;;;34.66;30.61;101078.97;4952442;28;8851;-79
2021/08/05 11:10:27;;;;;;;;;6.80;6.80;;;;;34.56;29.60;101067.56;4954965;28;8891;-78
2021/08/05 11:13:26;;;;;;;;;4.80;4.80;;;;;34.46;28.99;101059.50;4954517;28;8850;-81
2021/08/05 11:16:52;;;;;;;;;5.00;5.00;;;;;34.59;29.82;101059.25;4946332;28;8846;-80
2021/08/05 11:20:18;;;;;;;;;8.00;8.00;;;;;34.90;28.62;101048.19;4936498;28;8881;-81
2021/08/05 11:22:58;;;;;;;;;6.40;6.40;;;;;35.37;29.21;101041.50;4949041;28;8865;-80
2021/08/05 11:25:55;;;;;;;;;7.60;7.60;;;;;35.75;28.04;101041.91;4948355;28;8962;-79
2021/08/05 11:28:23;;;;;;;;;5.80;5.80;;;;;34.85;27.89;101037.34;4939046;28;8885;-80
2021/08/05 11:31:22;;;;;;;;;6.40;6.40;;;;;35.28;28.50;101038.72;4947757;28;8859;-82
2021/08/05 11:34:19;;;;;;;;;6.00;6.00;;;;;35.89;27.91;101024.63;4948979;28;8922;-82
2021/08/05 11:37:14;;;;;;;;;6.00;6.00;;;;;35.97;27.87;101022.13;4945848;28;8864;-77
2021/08/05 11:40:06;;;;;;;;;5.80;5.80;;;;;36.27;27.50;101019.94;4954970;28;8855;-80
2021/08/05 11:42:35;;;;;;;;;6.20;6.20;;;;;35.78;27.97;101010.03;4972082;28;8906;-80
2021/08/05 11:45:31;;;;;;;;;7.80;7.80;;;;;35.69;28.46;101015.13;4973549;28;8856;-80
2021/08/05 11:48:36;;;;;;;;;6.20;6.20;;;;;34.71;28.46;101023.72;4963033;28;8868;-80
2021/08/05 11:51:35;;;;;;;;;5.60;5.60;;;;;34.25;30.37;101009.69;4961544;28;8899;-80
2021/08/05 11:54:18;;;;;;;;;9.00;9.00;;;;;34.23;30.39;101009.38;4959573;28;8875;-80
2021/08/05 11:57:11;;;;;;;;;0.20;0.20;;;;;34.44;30.77;100998.91;4912323;28;8878;-81
2021/08/05 11:59:45;;;;;;;;;6.20;6.20;;;;;34.31;31.57;101002.00;4946499;28;8907;-80
2021/08/05 12:02:41;;;;;;;;;10.20;10.20;;;;;34.38;29.61;100995.88;4946425;28;9625;-81
2021/08/05 12:05:12;;;;;;;;;7.00;7.00;;;;;34.44;30.61;100999.69;4943720;28;8863;-81
2021/08/05 12:08:10;;;;;;;;;4.40;4.40;;;;;34.88;31.42;100998.19;4944757;28;8878;-82
2021/08/05 12:11:07;;;;;;;;;4.80;4.80;;;;;35.34;29.33;100995.66;4947906;28;8844;-79
2021/08/05 12:14:05;;;;;;;;;6.20;6.20;;;;;35.40;29.16;100987.97;4953150;28;8848;-80
2021/08/05 12:17:01;;;;;;;;;6.60;6.60;;;;;35.73;28.67;100984.84;4953622;28;8839;-82
2021/08/05 12:19:51;;;;;;;;;5.00;5.00;;;;;35.28;29.65;100991.94;4950687;29;8867;-79
2021/08/05 12:22:53;;;;;;;;;5.00;5.00;;;;;34.87;29.45;100994.53;4954209;28;8852;-82
2021/08/05 12:26:12;;;;;;;;;4.60;4.60;;;;;35.34;29.03;100984.16;4950645;28;8874;-75
2021/08/05 12:29:11;;;;;;;;;5.40;5.40;;;;;36.36;28.80;100981.56;4945918;29;8851;-77
2021/08/05 12:32:07;;;;;;;;;6.20;6.20;;;;;36.04;27.62;100977.72;4950630;29;9643;-74
2021/08/05 12:34:46;;;;;;;;;4.00;4.00;;;;;36.66;26.34;100970.72;4952414;29;8895;-75
2021/08/05 12:37:58;;;;;;;;;8.00;8.00;;;;;36.97;25.02;100973.69;4946050;29;8871;-75
2021/08/05 12:40:56;;;;;;;;;4.60;4.60;;;;;36.75;26.10;100971.34;4952538;28;8954;-75
2021/08/05 12:43:54;;;;;;;;;4.00;4.00;;;;;37.16;25.59;100967.56;4957335;28;8878;-75
2021/08/05 12:46:52;;;;;;;;;5.40;5.40;;;;;37.22;26.61;100974.97;4945545;29;8871;-76
2021/08/05 12:49:49;;;;;;;;;4.40;4.40;;;;;37.29;25.96;100970.84;4963607;29;8880;-76